createdAt,value
2019-05-29T00:01:20.379Z,6.47
2019-05-29T00:03:47.607Z,6.44
2019-05-29T00:06:16.298Z,6.41
2019-05-29T00:08:45.036Z,6.39
2019-05-29T00:11:14.325Z,6.36
2019-05-29T00:13:44.156Z,6.34
2019-05-29T00:16:12.843Z,6.29
2019-05-29T00:18:41.557Z,6.25
2019-05-29T00:21:11.662Z,6.26
2019-05-29T00:23:40.774Z,6.22
2019-05-29T00:26:10.415Z,6.14
2019-05-29T00:28:40.121Z,6.17
2019-05-29T00:31:09.891Z,6.11
2019-05-29T00:33:39.107Z,6.06
2019-05-29T00:36:08.222Z,5.97
2019-05-29T00:38:38.917Z,5.92
2019-05-29T00:41:08.770Z,5.87
2019-05-29T00:43:38.141Z,5.83
2019-05-29T00:46:07.319Z,5.80
2019-05-29T00:48:36.184Z,5.79
2019-05-29T00:51:05.222Z,5.66
2019-05-29T00:53:33.930Z,5.17
2019-05-29T00:56:02.773Z,5.50
2019-05-29T00:58:31.602Z,5.45
2019-05-29T01:01:00.288Z,5.41
2019-05-29T01:03:29.398Z,5.42
2019-05-29T01:05:58.081Z,5.41
2019-05-29T01:08:26.792Z,5.38
2019-05-29T01:10:55.516Z,5.39
2019-05-29T01:13:24.217Z,5.43
2019-05-29T01:15:52.946Z,5.40
2019-05-29T01:18:22.335Z,5.36
2019-05-29T01:20:51.488Z,5.26
2019-05-29T01:23:20.416Z,5.25
2019-05-29T01:25:49.123Z,5.26
2019-05-29T01:28:18.934Z,5.16
2019-05-29T01:30:51.338Z,5.10
2019-05-29T01:33:20.503Z,5.07
2019-05-29T01:35:49.093Z,5.05
2019-05-29T01:38:17.785Z,5.08
2019-05-29T01:40:46.519Z,5.03
2019-05-29T01:43:15.367Z,4.94
2019-05-29T01:45:44.268Z,4.88
2019-05-29T01:48:13.036Z,4.82
2019-05-29T01:50:42.555Z,4.80
2019-05-29T01:53:11.314Z,4.74
2019-05-29T01:55:40.043Z,4.70
2019-05-29T01:58:08.744Z,4.65
2019-05-29T02:00:37.479Z,4.62
2019-05-29T02:03:06.219Z,4.68
2019-05-29T02:05:34.920Z,4.60
2019-05-29T02:08:03.615Z,4.63
2019-05-29T02:10:32.257Z,4.66
2019-05-29T02:13:00.989Z,4.60
2019-05-29T02:15:33.493Z,4.55
2019-05-29T02:18:01.067Z,4.43
2019-05-29T02:20:29.792Z,4.40
2019-05-29T02:22:58.498Z,4.33
2019-05-29T02:25:27.226Z,4.30
2019-05-29T02:27:55.944Z,4.25
2019-05-29T02:30:27.794Z,4.23
2019-05-29T02:32:55.351Z,4.21
2019-05-29T02:35:24.861Z,4.16
2019-05-29T02:37:55.016Z,4.16
2019-05-29T02:40:25.821Z,4.14
2019-05-29T02:42:54.262Z,4.15
2019-05-29T02:45:26.158Z,4.15
2019-05-29T02:47:53.885Z,4.11
2019-05-29T02:50:23.923Z,4.07
2019-05-29T02:52:52.892Z,4.04
2019-05-29T02:55:22.601Z,4.06
2019-05-29T02:57:51.927Z,4.01
2019-05-29T03:00:25.562Z,3.94
2019-05-29T03:02:54.087Z,3.87
2019-05-29T03:05:23.858Z,3.79
2019-05-29T03:07:53.039Z,3.75
2019-05-29T03:10:22.570Z,3.75
2019-05-29T03:12:52.076Z,3.77
2019-05-29T03:15:20.797Z,3.74
2019-05-29T03:17:49.633Z,3.72
2019-05-29T03:20:18.355Z,3.73
2019-05-29T03:22:47.141Z,3.75
2019-05-29T03:25:15.857Z,3.70
2019-05-29T03:27:44.554Z,3.71
2019-05-29T03:30:13.453Z,3.75
2019-05-29T03:32:47.706Z,3.81
2019-05-29T03:35:12.585Z,3.83
2019-05-29T03:37:41.423Z,3.82
2019-05-29T03:40:10.130Z,3.82
2019-05-29T03:42:39.250Z,3.84
2019-05-29T03:45:09.442Z,3.90
2019-05-29T03:47:38.231Z,3.91
2019-05-29T03:50:08.593Z,3.97
2019-05-29T03:52:38.984Z,4.00
2019-05-29T03:55:07.768Z,4.05
2019-05-29T03:57:38.194Z,4.13
2019-05-29T04:00:09.815Z,4.07
2019-05-29T04:02:39.121Z,4.17
2019-05-29T04:05:09.448Z,4.25
2019-05-29T04:07:38.549Z,4.19
2019-05-29T04:10:09.045Z,4.47
2019-05-29T04:12:38.291Z,5.28
2019-05-29T04:15:09.454Z,6.35
2019-05-29T04:17:40.060Z,9.04
2019-05-29T04:20:09.708Z,10.54
2019-05-29T04:22:41.321Z,12.37
2019-05-29T04:25:10.133Z,13.02
2019-05-29T04:27:41.797Z,13.62
2019-05-29T04:30:10.634Z,14.41
2019-05-29T04:32:39.339Z,15.28
2019-05-29T04:35:08.481Z,15.43
2019-05-29T04:37:39.473Z,16.22
2019-05-29T04:40:08.772Z,16.70
2019-05-29T04:42:39.717Z,17.62
2019-05-29T04:45:10.822Z,18.38
2019-05-29T04:47:39.895Z,18.59
2019-05-29T04:50:10.216Z,18.90
2019-05-29T04:52:40.298Z,19.10
2019-05-29T04:55:09.682Z,18.80
2019-05-29T04:57:39.229Z,19.17
2019-05-29T05:00:09.948Z,18.88
2019-05-29T05:02:39.447Z,18.74
2019-05-29T05:05:09.808Z,19.58
2019-05-29T05:07:39.665Z,19.38
2019-05-29T05:10:10.194Z,18.93
2019-05-29T05:12:42.640Z,20.62
2019-05-29T05:15:11.644Z,21.01
2019-05-29T05:17:40.399Z,21.92
2019-05-29T05:20:09.175Z,22.44
2019-05-29T05:22:38.224Z,23.78
2019-05-29T05:25:07.454Z,23.93
2019-05-29T05:27:36.524Z,25.63
2019-05-29T05:30:09.017Z,25.30
2019-05-29T05:32:41.102Z,22.52
2019-05-29T05:35:13.999Z,24.37
2019-05-29T05:37:41.071Z,24.22
2019-05-29T05:40:11.325Z,24.97
2019-05-29T05:42:41.247Z,26.10
2019-05-29T05:45:11.219Z,25.36
2019-05-29T05:47:54.095Z,26.07
2019-05-29T05:50:10.463Z,26.08
2019-05-29T05:52:39.529Z,24.85
2019-05-29T05:55:08.530Z,25.05
2019-05-29T05:57:37.724Z,24.83
2019-05-29T06:00:10.420Z,24.76
2019-05-29T06:02:40.131Z,24.58
2019-05-29T06:05:10.368Z,24.24
2019-05-29T06:07:40.266Z,24.81
2019-05-29T06:10:09.469Z,23.39
2019-05-29T06:12:38.701Z,23.32
2019-05-29T06:15:08.458Z,22.15
2019-05-29T06:17:38.589Z,22.59
2019-05-29T06:20:10.568Z,22.38
2019-05-29T06:22:39.394Z,23.38
2019-05-29T06:25:09.529Z,23.41
2019-05-29T06:27:39.175Z,22.43
2019-05-29T06:30:09.546Z,23.06
2019-05-29T06:32:39.454Z,22.15
2019-05-29T06:35:09.007Z,21.40
2019-05-29T06:37:37.765Z,21.61
2019-05-29T06:40:08.701Z,20.90
2019-05-29T06:42:37.864Z,20.48
2019-05-29T06:45:09.161Z,20.21
2019-05-29T06:47:40.437Z,20.33
2019-05-29T06:50:09.269Z,20.18
2019-05-29T06:52:39.119Z,19.84
2019-05-29T06:55:08.592Z,19.77
2019-05-29T06:57:38.088Z,19.87
2019-05-29T07:00:08.911Z,19.81
2019-05-29T07:02:38.486Z,19.32
2019-05-29T07:05:08.158Z,19.31
2019-05-29T07:07:38.088Z,19.49
2019-05-29T07:10:07.787Z,19.60
2019-05-29T07:12:36.581Z,20.43
2019-05-29T07:15:08.379Z,19.94
2019-05-29T07:17:38.416Z,19.16
2019-05-29T07:20:07.824Z,19.46
2019-05-29T07:22:37.074Z,19.83
2019-05-29T07:25:07.668Z,19.13
2019-05-29T07:27:36.844Z,18.77
2019-05-29T07:30:11.033Z,19.02
2019-05-29T07:32:40.993Z,18.85
2019-05-29T07:35:10.377Z,18.74
2019-05-29T07:37:39.717Z,18.64
2019-05-29T07:40:12.004Z,18.48
2019-05-29T07:42:45.357Z,18.85
2019-05-29T07:45:12.711Z,19.15
2019-05-29T07:47:42.686Z,19.34
2019-05-29T07:50:12.796Z,18.94
2019-05-29T07:52:43.038Z,19.31
2019-05-29T07:55:13.911Z,18.56
2019-05-29T07:57:42.902Z,17.01
2019-05-29T08:00:11.738Z,17.35
2019-05-29T08:02:41.351Z,17.92
2019-05-29T08:05:11.865Z,18.76
2019-05-29T08:07:41.402Z,18.53
2019-05-29T08:10:13.046Z,17.27
2019-05-29T08:12:46.815Z,17.27
2019-05-29T08:15:13.993Z,16.27
2019-05-29T08:17:43.958Z,16.21
2019-05-29T08:20:14.283Z,17.22
2019-05-29T08:22:44.291Z,17.56
2019-05-29T08:25:16.634Z,17.81
2019-05-29T08:27:46.592Z,17.62
2019-05-29T08:30:15.680Z,17.02
2019-05-29T08:32:45.323Z,16.55
2019-05-29T08:35:14.274Z,16.18
2019-05-29T08:37:43.013Z,16.46
2019-05-29T08:40:11.938Z,17.17
2019-05-29T08:42:41.095Z,17.97
2019-05-29T08:45:12.085Z,18.76
2019-05-29T08:47:41.470Z,18.86
2019-05-29T08:50:19.424Z,18.50
2019-05-29T08:52:41.856Z,19.03
2019-05-29T08:55:13.852Z,19.38
2019-05-29T08:57:44.113Z,20.78
2019-05-29T09:00:14.455Z,21.06
2019-05-29T09:02:44.574Z,20.35
2019-05-29T09:05:13.667Z,20.03
2019-05-29T09:07:43.393Z,20.00
2019-05-29T09:10:14.365Z,20.08
2019-05-29T09:12:49.471Z,20.00
2019-05-29T09:15:13.929Z,19.59
2019-05-29T09:17:43.987Z,19.49
2019-05-29T09:20:29.224Z,19.31
2019-05-29T09:22:43.435Z,19.13
2019-05-29T09:25:13.683Z,19.03
2019-05-29T09:27:42.740Z,19.51
2019-05-29T09:30:11.719Z,19.70
2019-05-29T09:32:50.032Z,20.18
2019-05-29T09:35:10.952Z,20.41
2019-05-29T09:37:39.735Z,21.00
2019-05-29T09:40:15.379Z,20.42
2019-05-29T09:42:44.536Z,20.18
2019-05-29T09:45:13.416Z,20.25
2019-05-29T09:47:42.267Z,19.76
2019-05-29T09:50:12.641Z,20.01
2019-05-29T09:52:41.431Z,19.77
2019-05-29T09:55:10.355Z,20.21
2019-05-29T09:57:39.118Z,20.26
2019-05-29T10:00:12.749Z,20.35
2019-05-29T10:02:41.504Z,20.54
2019-05-29T10:05:10.449Z,19.97
2019-05-29T10:07:40.073Z,21.02
2019-05-29T10:10:13.794Z,21.19
2019-05-29T10:12:42.570Z,20.77
2019-05-29T10:15:13.856Z,20.47
2019-05-29T10:17:42.614Z,20.23
2019-05-29T10:20:14.159Z,20.71
2019-05-29T10:22:42.920Z,20.52
2019-05-29T10:25:12.895Z,19.99
2019-05-29T10:27:41.653Z,19.99
2019-05-29T10:30:12.000Z,20.83
2019-05-29T10:32:42.456Z,20.83
2019-05-29T10:35:11.199Z,20.72
2019-05-29T10:37:40.011Z,20.01
2019-05-29T10:40:10.058Z,19.37
2019-05-29T10:42:39.478Z,19.28
2019-05-29T10:45:10.103Z,19.64
2019-05-29T10:47:38.883Z,19.87
2019-05-29T10:50:11.008Z,19.99
2019-05-29T10:52:39.897Z,19.25
2019-05-29T10:55:10.081Z,19.15
2019-05-29T10:57:38.817Z,19.39
2019-05-29T11:00:10.123Z,20.50
2019-05-29T11:02:38.869Z,21.24
2019-05-29T11:05:07.825Z,21.65
2019-05-29T11:07:36.548Z,21.64
2019-05-29T11:10:07.716Z,21.09
2019-05-29T11:12:40.974Z,21.16
2019-05-29T11:15:20.936Z,21.38
2019-05-29T11:17:40.378Z,20.34
2019-05-29T11:20:11.280Z,19.78
2019-05-29T11:22:40.015Z,19.42
2019-05-29T11:25:22.645Z,18.87
2019-05-29T11:27:41.178Z,19.47
2019-05-29T11:30:11.378Z,19.27
2019-05-29T11:32:41.832Z,20.50
2019-05-29T11:35:12.205Z,20.76
2019-05-29T11:37:54.521Z,20.99
2019-05-29T11:40:24.821Z,21.23
2019-05-29T11:42:59.037Z,20.89
2019-05-29T11:45:35.177Z,21.23
2019-05-29T11:48:05.480Z,21.44
2019-05-29T11:50:36.781Z,21.76
2019-05-29T11:53:09.822Z,22.03
2019-05-29T11:55:39.472Z,22.24
2019-05-29T11:58:30.096Z,22.61
2019-05-29T12:00:46.035Z,22.39
2019-05-29T12:03:29.803Z,22.63
2019-05-29T12:05:59.781Z,22.95
2019-05-29T12:08:28.516Z,21.44
2019-05-29T12:10:57.440Z,21.16
2019-05-29T12:13:26.255Z,21.09
2019-05-29T12:15:55.929Z,20.58
2019-05-29T12:18:25.117Z,20.79
2019-05-29T12:20:54.079Z,21.40
2019-05-29T12:23:26.817Z,22.01
2019-05-29T12:26:12.478Z,22.18
2019-05-29T12:28:24.664Z,22.78
2019-05-29T12:30:55.021Z,21.98
2019-05-29T12:33:24.046Z,22.03
2019-05-29T12:35:52.953Z,21.66
2019-05-29T12:38:21.795Z,22.34
2019-05-29T12:40:50.571Z,21.43
2019-05-29T12:43:27.317Z,22.46
2019-05-29T12:45:49.799Z,22.50
2019-05-29T12:48:18.590Z,23.79
2019-05-29T12:50:47.356Z,24.34
2019-05-29T12:53:29.668Z,24.94
2019-05-29T12:55:48.200Z,24.21
2019-05-29T12:58:16.977Z,24.78
2019-05-29T13:00:45.743Z,24.95
2019-05-29T13:03:14.586Z,24.91
2019-05-29T13:05:47.061Z,25.20
2019-05-29T13:08:21.991Z,25.43
2019-05-29T13:10:50.741Z,25.25
2019-05-29T13:13:19.506Z,25.52
2019-05-29T13:15:48.372Z,25.33
2019-05-29T13:18:17.102Z,25.30
2019-05-29T13:20:45.980Z,25.38
2019-05-29T13:23:14.738Z,25.08
2019-05-29T13:25:43.509Z,24.60
2019-05-29T13:28:13.137Z,24.42
2019-05-29T13:30:41.876Z,24.43
2019-05-29T13:33:10.847Z,25.19
2019-05-29T13:35:39.587Z,25.20
2019-05-29T13:38:08.327Z,25.20
2019-05-29T13:40:37.250Z,25.30
2019-05-29T13:43:14.717Z,24.72
2019-05-29T13:45:36.497Z,22.98
2019-05-29T13:48:05.580Z,23.64
2019-05-29T13:50:34.381Z,23.65
2019-05-29T13:53:03.634Z,23.66
2019-05-29T13:55:33.378Z,23.22
2019-05-29T13:58:02.132Z,23.23
2019-05-29T14:00:34.216Z,24.14
2019-05-29T14:03:02.683Z,23.97
2019-05-29T14:05:31.849Z,23.53
2019-05-29T14:08:00.683Z,23.08
2019-05-29T14:10:30.223Z,22.95
2019-05-29T14:12:59.125Z,22.95
2019-05-29T14:15:27.934Z,23.12
2019-05-29T14:17:56.716Z,22.54
2019-05-29T14:20:25.709Z,22.11
2019-05-29T14:22:54.454Z,22.19
2019-05-29T14:25:23.173Z,22.75
2019-05-29T14:27:51.928Z,23.25
2019-05-29T14:30:21.054Z,23.25
2019-05-29T14:32:52.696Z,22.86
2019-05-29T14:35:21.475Z,22.74
2019-05-29T14:37:50.236Z,22.66
2019-05-29T14:40:19.250Z,22.88
2019-05-29T14:42:47.994Z,23.25
2019-05-29T14:45:18.356Z,23.36
2019-05-29T14:47:47.089Z,23.23
2019-05-29T14:50:15.941Z,23.30
2019-05-29T14:52:44.677Z,23.17
2019-05-29T14:55:17.577Z,22.79
2019-05-29T14:57:44.857Z,22.27
2019-05-29T15:00:24.866Z,22.10
2019-05-29T15:02:45.995Z,23.00
2019-05-29T15:05:15.346Z,23.08
2019-05-29T15:07:44.088Z,23.44
2019-05-29T15:10:24.802Z,23.30
2019-05-29T15:12:46.005Z,22.78
2019-05-29T15:15:16.855Z,23.22
2019-05-29T15:17:46.008Z,23.13
2019-05-29T15:20:16.779Z,23.22
2019-05-29T15:22:45.381Z,22.82
2019-05-29T15:25:23.659Z,22.83
2019-05-29T15:27:46.172Z,22.70
2019-05-29T15:30:22.002Z,22.72
2019-05-29T15:32:46.019Z,22.78
2019-05-29T15:35:18.054Z,22.58
2019-05-29T15:37:45.291Z,22.61
2019-05-29T15:40:17.196Z,22.22
2019-05-29T15:42:46.037Z,22.14
2019-05-29T15:45:15.997Z,21.94
2019-05-29T15:47:45.222Z,21.24
2019-05-29T15:50:16.155Z,21.37
2019-05-29T15:52:45.980Z,21.36
2019-05-29T15:55:28.600Z,21.12
2019-05-29T15:57:47.008Z,21.12
2019-05-29T16:00:15.858Z,20.32
2019-05-29T16:02:48.211Z,20.00
2019-05-29T16:05:17.205Z,20.16
2019-05-29T16:07:46.806Z,20.29
2019-05-29T16:10:18.589Z,20.39
2019-05-29T16:12:46.763Z,20.36
2019-05-29T16:15:17.203Z,20.32
2019-05-29T16:17:46.256Z,20.29
2019-05-29T16:20:29.598Z,20.20
2019-05-29T16:22:59.502Z,20.21
2019-05-29T16:25:39.679Z,20.09
2019-05-29T16:27:58.895Z,19.99
2019-05-29T16:30:27.650Z,19.91
2019-05-29T16:32:56.392Z,19.91
2019-05-29T16:35:25.191Z,19.94
2019-05-29T16:37:54.080Z,19.96
2019-05-29T16:40:24.328Z,20.01
2019-05-29T16:42:53.049Z,19.97
2019-05-29T16:45:22.366Z,20.01
2019-05-29T16:47:52.170Z,19.80
2019-05-29T16:50:21.357Z,19.48
2019-05-29T16:52:50.068Z,19.27
2019-05-29T16:55:20.932Z,19.13
2019-05-29T16:57:50.372Z,19.18
2019-05-29T17:00:19.813Z,19.20
2019-05-29T17:02:48.605Z,19.27
2019-05-29T17:05:17.765Z,19.49
2019-05-29T17:07:46.531Z,19.35
2019-05-29T17:10:16.880Z,19.25
2019-05-29T17:12:47.225Z,19.39
2019-05-29T17:15:17.126Z,19.51
2019-05-29T17:17:47.185Z,19.54
2019-05-29T17:20:18.651Z,19.52
2019-05-29T17:22:47.997Z,19.36
2019-05-29T17:25:16.877Z,19.13
2019-05-29T17:27:45.696Z,18.95
2019-05-29T17:30:17.371Z,19.04
2019-05-29T17:32:46.245Z,18.98
2019-05-29T17:35:14.969Z,18.92
2019-05-29T17:37:43.706Z,18.85
2019-05-29T17:40:12.658Z,18.67
2019-05-29T17:42:41.466Z,18.69
2019-05-29T17:45:12.127Z,18.76
2019-05-29T17:47:41.554Z,18.70
2019-05-29T17:50:10.535Z,18.58
2019-05-29T17:52:39.500Z,18.64
2019-05-29T17:55:09.660Z,18.60
2019-05-29T17:57:38.403Z,18.65
2019-05-29T18:00:15.884Z,18.59
2019-05-29T18:02:51.972Z,18.57
2019-05-29T18:05:18.417Z,18.45
2019-05-29T18:07:47.743Z,18.32
2019-05-29T18:10:19.390Z,18.24
2019-05-29T18:12:48.891Z,18.14
2019-05-29T18:15:19.525Z,18.11
2019-05-29T18:17:48.789Z,18.11
2019-05-29T18:20:17.997Z,18.07
2019-05-29T18:22:46.856Z,17.98
2019-05-29T18:25:16.129Z,17.95
2019-05-29T18:27:44.888Z,17.92
2019-05-29T18:30:14.278Z,17.88
2019-05-29T18:32:43.029Z,17.83
2019-05-29T18:35:13.351Z,17.65
2019-05-29T18:37:42.084Z,17.64
2019-05-29T18:40:12.641Z,17.48
2019-05-29T18:42:41.835Z,17.41
2019-05-29T18:45:20.965Z,17.35
2019-05-29T18:47:43.385Z,17.32
2019-05-29T18:50:12.168Z,17.16
2019-05-29T18:52:40.935Z,17.13
2019-05-29T18:55:10.186Z,17.02
2019-05-29T18:57:39.067Z,16.93
2019-05-29T19:00:11.440Z,16.89
2019-05-29T19:02:40.174Z,16.76
2019-05-29T19:05:10.551Z,16.61
2019-05-29T19:07:41.610Z,16.53
2019-05-29T19:10:10.686Z,16.49
2019-05-29T19:12:39.430Z,16.33
2019-05-29T19:15:10.568Z,16.29
2019-05-29T19:17:39.484Z,16.20
2019-05-29T19:20:09.626Z,16.03
2019-05-29T19:22:38.555Z,15.98
2019-05-29T19:25:07.503Z,15.89
2019-05-29T19:27:41.398Z,15.69
2019-05-29T19:30:09.649Z,15.62
2019-05-29T19:32:38.597Z,15.56
2019-05-29T19:35:09.662Z,15.64
2019-05-29T19:37:38.424Z,15.39
2019-05-29T19:40:09.705Z,15.40
2019-05-29T19:42:38.480Z,15.27
2019-05-29T19:45:11.901Z,15.19
2019-05-29T19:47:40.700Z,15.02
2019-05-29T19:50:11.709Z,14.90
2019-05-29T19:52:41.358Z,14.74
2019-05-29T19:55:10.426Z,14.64
2019-05-29T19:57:54.821Z,14.54
2019-05-29T20:00:11.852Z,14.50
2019-05-29T20:02:41.236Z,14.41
2019-05-29T20:05:10.035Z,14.39
2019-05-29T20:07:38.798Z,14.26
2019-05-29T20:10:10.034Z,14.13
2019-05-29T20:12:38.862Z,14.09
2019-05-29T20:15:10.954Z,14.03
2019-05-29T20:17:39.775Z,13.91
2019-05-29T20:20:08.813Z,13.95
2019-05-29T20:22:38.924Z,13.85
2019-05-29T20:25:13.466Z,13.84
2019-05-29T20:27:40.671Z,13.82
2019-05-29T20:30:18.511Z,13.78
2019-05-29T20:32:48.686Z,13.72
2019-05-29T20:35:18.114Z,13.72
2019-05-29T20:37:47.015Z,13.67
2019-05-29T20:40:17.324Z,13.69
2019-05-29T20:42:46.708Z,13.65
2019-05-29T20:45:18.591Z,13.56
2019-05-29T20:47:47.330Z,13.50
2019-05-29T20:50:16.217Z,13.33
2019-05-29T20:52:47.824Z,13.28
2019-05-29T20:55:16.778Z,13.24
2019-05-29T20:57:45.553Z,13.07
2019-05-29T21:00:17.755Z,12.98
2019-05-29T21:02:46.680Z,12.92
2019-05-29T21:05:17.541Z,12.87
2019-05-29T21:07:46.295Z,12.84
2019-05-29T21:10:16.465Z,12.76
2019-05-29T21:12:47.622Z,12.71
2019-05-29T21:15:16.047Z,12.71
2019-05-29T21:17:44.905Z,12.66
2019-05-29T21:20:13.797Z,12.68
2019-05-29T21:22:45.052Z,12.68
2019-05-29T21:25:18.861Z,12.67
2019-05-29T21:27:49.147Z,12.61
2019-05-29T21:30:17.888Z,12.63
2019-05-29T21:32:46.682Z,12.62
2019-05-29T21:35:15.637Z,12.61
2019-05-29T21:37:44.475Z,12.60
2019-05-29T21:40:13.560Z,12.59
2019-05-29T21:42:43.246Z,12.59
2019-05-29T21:45:12.181Z,12.49
2019-05-29T21:47:41.061Z,12.49
2019-05-29T21:50:10.457Z,12.55
2019-05-29T21:52:39.580Z,12.55
2019-05-29T21:55:09.581Z,12.58
2019-05-29T21:57:42.336Z,12.68
2019-05-29T22:00:13.387Z,12.72
2019-05-29T22:02:42.415Z,12.83
2019-05-29T22:05:11.767Z,12.87
2019-05-29T22:07:40.785Z,12.94
2019-05-29T22:10:09.663Z,13.00
2019-05-29T22:12:38.372Z,13.10
2019-05-29T22:15:08.741Z,13.20
2019-05-29T22:17:37.643Z,13.25
2019-05-29T22:20:09.053Z,13.28
2019-05-29T22:22:37.801Z,13.33
2019-05-29T22:25:07.694Z,13.42
2019-05-29T22:27:38.279Z,13.45
2019-05-29T22:30:08.810Z,13.53
2019-05-29T22:32:37.555Z,13.55
2019-05-29T22:35:09.798Z,13.60
2019-05-29T22:37:38.527Z,13.66
2019-05-29T22:40:07.763Z,13.70
2019-05-29T22:42:36.525Z,13.76
2019-05-29T22:45:06.846Z,13.75
2019-05-29T22:47:35.612Z,13.77
2019-05-29T22:50:07.795Z,13.81
2019-05-29T22:52:36.567Z,13.82
2019-05-29T22:55:06.887Z,13.88
2019-05-29T22:57:38.385Z,13.95
2019-05-29T23:00:08.970Z,14.03
2019-05-29T23:02:37.705Z,14.07
2019-05-29T23:05:09.068Z,13.99
2019-05-29T23:07:37.887Z,14.00
2019-05-29T23:10:10.044Z,14.01
2019-05-29T23:12:38.931Z,14.21
2019-05-29T23:15:08.971Z,14.12
2019-05-29T23:17:37.876Z,14.02
2019-05-29T23:20:09.198Z,14.07
2019-05-29T23:22:37.933Z,14.05
2019-05-29T23:25:07.239Z,14.05
2019-05-29T23:27:36.380Z,14.09
2019-05-29T23:30:08.145Z,14.15
2019-05-29T23:32:36.931Z,13.12
2019-05-29T23:35:08.915Z,14.11
2019-05-29T23:37:37.650Z,14.11
2019-05-29T23:40:09.327Z,14.11
2019-05-29T23:42:38.055Z,14.12
2019-05-29T23:45:08.476Z,14.14
2019-05-29T23:47:37.356Z,14.15
2019-05-29T23:50:08.298Z,14.22
2019-05-29T23:52:37.052Z,14.22
2019-05-29T23:55:07.210Z,14.22
2019-05-29T23:57:36.015Z,14.18
